sensor_id;sensor_type;location;lat;lon;timestamp;P1;durP1;ratioP1;P2;durP2;ratioP2
34373;SDS011;20637;55.770;37.592;2024-02-16T00:00:24;13.90;;;7.05;;
34373;SDS011;20637;55.770;37.592;2024-02-16T00:02:50;12.20;;;6.32;;
34373;SDS011;20637;55.770;37.592;2024-02-16T00:05:16;13.38;;;7.05;;
34373;SDS011;20637;55.770;37.592;2024-02-16T00:07:41;10.82;;;6.75;;
34373;SDS011;20637;55.770;37.592;2024-02-16T00:10:07;12.52;;;6.85;;
34373;SDS011;20637;55.770;37.592;2024-02-16T00:12:34;12.93;;;6.90;;
34373;SDS011;20637;55.770;37.592;2024-02-16T00:15:00;15.02;;;7.43;;
34373;SDS011;20637;55.770;37.592;2024-02-16T00:17:27;14.68;;;7.32;;
34373;SDS011;20637;55.770;37.592;2024-02-16T00:19:55;11.25;;;5.80;;
34373;SDS011;20637;55.770;37.592;2024-02-16T00:22:22;12.95;;;7.38;;
34373;SDS011;20637;55.770;37.592;2024-02-16T00:24:48;11.73;;;6.90;;
34373;SDS011;20637;55.770;37.592;2024-02-16T00:27:13;13.40;;;6.97;;
34373;SDS011;20637;55.770;37.592;2024-02-16T00:29:40;13.40;;;6.70;;
34373;SDS011;20637;55.770;37.592;2024-02-16T00:32:05;13.55;;;7.15;;
34373;SDS011;20637;55.770;37.592;2024-02-16T00:34:35;11.90;;;6.22;;
34373;SDS011;20637;55.770;37.592;2024-02-16T00:37:02;16.65;;;7.47;;
34373;SDS011;20637;55.770;37.592;2024-02-16T00:39:29;12.77;;;7.50;;
34373;SDS011;20637;55.770;37.592;2024-02-16T00:41:54;14.20;;;7.75;;
34373;SDS011;20637;55.770;37.592;2024-02-16T00:44:20;12.55;;;7.07;;
34373;SDS011;20637;55.770;37.592;2024-02-16T00:46:46;14.77;;;7.22;;
34373;SDS011;20637;55.770;37.592;2024-02-16T00:49:11;12.77;;;6.75;;
34373;SDS011;20637;55.770;37.592;2024-02-16T00:51:38;14.20;;;6.72;;
34373;SDS011;20637;55.770;37.592;2024-02-16T00:54:04;13.00;;;7.28;;
34373;SDS011;20637;55.770;37.592;2024-02-16T00:56:30;10.85;;;6.25;;
34373;SDS011;20637;55.770;37.592;2024-02-16T00:58:57;12.00;;;6.93;;
34373;SDS011;20637;55.770;37.592;2024-02-16T01:01:22;14.05;;;7.28;;
34373;SDS011;20637;55.770;37.592;2024-02-16T01:03:49;14.85;;;8.32;;
34373;SDS011;20637;55.770;37.592;2024-02-16T01:06:17;11.18;;;6.88;;
34373;SDS011;20637;55.770;37.592;2024-02-16T01:08:43;10.70;;;6.47;;
34373;SDS011;20637;55.770;37.592;2024-02-16T01:11:08;14.70;;;7.25;;
34373;SDS011;20637;55.770;37.592;2024-02-16T01:13:34;14.25;;;7.25;;
34373;SDS011;20637;55.770;37.592;2024-02-16T01:16:00;10.90;;;6.28;;
34373;SDS011;20637;55.770;37.592;2024-02-16T01:18:27;14.25;;;7.60;;
34373;SDS011;20637;55.770;37.592;2024-02-16T01:20:53;16.83;;;8.20;;
34373;SDS011;20637;55.770;37.592;2024-02-16T01:23:19;14.98;;;7.18;;
34373;SDS011;20637;55.770;37.592;2024-02-16T01:25:45;13.35;;;7.10;;
34373;SDS011;20637;55.770;37.592;2024-02-16T01:28:11;15.85;;;8.73;;
34373;SDS011;20637;55.770;37.592;2024-02-16T01:30:38;14.05;;;7.43;;
34373;SDS011;20637;55.770;37.592;2024-02-16T01:33:04;11.40;;;6.53;;
34373;SDS011;20637;55.770;37.592;2024-02-16T01:35:31;13.82;;;7.28;;
34373;SDS011;20637;55.770;37.592;2024-02-16T01:38:00;13.10;;;6.97;;
34373;SDS011;20637;55.770;37.592;2024-02-16T01:40:27;13.13;;;6.60;;
34373;SDS011;20637;55.770;37.592;2024-02-16T01:42:53;12.35;;;6.72;;
34373;SDS011;20637;55.770;37.592;2024-02-16T01:45:19;15.07;;;7.22;;
34373;SDS011;20637;55.770;37.592;2024-02-16T01:47:45;14.05;;;7.45;;
34373;SDS011;20637;55.770;37.592;2024-02-16T01:50:14;12.05;;;7.03;;
34373;SDS011;20637;55.770;37.592;2024-02-16T01:55:09;12.90;;;6.70;;
34373;SDS011;20637;55.770;37.592;2024-02-16T01:57:38;15.05;;;7.20;;
34373;SDS011;20637;55.770;37.592;2024-02-16T02:00:05;15.13;;;7.70;;
34373;SDS011;20637;55.770;37.592;2024-02-16T02:02:36;13.18;;;7.72;;
34373;SDS011;20637;55.770;37.592;2024-02-16T02:05:02;15.57;;;7.85;;
34373;SDS011;20637;55.770;37.592;2024-02-16T02:07:29;17.70;;;7.43;;
34373;SDS011;20637;55.770;37.592;2024-02-16T02:09:55;14.98;;;7.60;;
34373;SDS011;20637;55.770;37.592;2024-02-16T02:12:21;15.25;;;7.82;;
34373;SDS011;20637;55.770;37.592;2024-02-16T02:14:48;12.93;;;7.30;;
34373;SDS011;20637;55.770;37.592;2024-02-16T02:17:14;13.52;;;6.82;;
34373;SDS011;20637;55.770;37.592;2024-02-16T02:19:40;13.82;;;7.72;;
34373;SDS011;20637;55.770;37.592;2024-02-16T02:22:18;15.70;;;8.40;;
34373;SDS011;20637;55.770;37.592;2024-02-16T02:24:44;12.73;;;7.22;;
34373;SDS011;20637;55.770;37.592;2024-02-16T02:27:11;13.55;;;7.57;;
34373;SDS011;20637;55.770;37.592;2024-02-16T02:29:37;14.07;;;8.25;;
34373;SDS011;20637;55.770;37.592;2024-02-16T02:32:02;13.95;;;7.25;;
34373;SDS011;20637;55.770;37.592;2024-02-16T02:34:29;15.70;;;7.75;;
34373;SDS011;20637;55.770;37.592;2024-02-16T02:36:54;14.30;;;7.32;;
34373;SDS011;20637;55.770;37.592;2024-02-16T02:39:20;15.38;;;7.60;;
34373;SDS011;20637;55.770;37.592;2024-02-16T02:41:46;18.83;;;7.82;;
34373;SDS011;20637;55.770;37.592;2024-02-16T02:44:12;14.68;;;7.25;;
34373;SDS011;20637;55.770;37.592;2024-02-16T02:46:38;16.08;;;8.27;;
34373;SDS011;20637;55.770;37.592;2024-02-16T02:49:03;13.77;;;8.00;;
34373;SDS011;20637;55.770;37.592;2024-02-16T02:51:29;15.00;;;7.03;;
34373;SDS011;20637;55.770;37.592;2024-02-16T02:53:55;15.02;;;7.55;;
34373;SDS011;20637;55.770;37.592;2024-02-16T02:56:21;16.75;;;8.45;;
34373;SDS011;20637;55.770;37.592;2024-02-16T02:58:47;18.73;;;8.07;;
34373;SDS011;20637;55.770;37.592;2024-02-16T03:01:13;11.38;;;6.63;;
34373;SDS011;20637;55.770;37.592;2024-02-16T03:03:39;15.57;;;7.65;;
34373;SDS011;20637;55.770;37.592;2024-02-16T03:06:06;14.95;;;7.68;;
34373;SDS011;20637;55.770;37.592;2024-02-16T03:08:32;12.93;;;7.53;;
34373;SDS011;20637;55.770;37.592;2024-02-16T03:10:58;16.27;;;7.65;;
34373;SDS011;20637;55.770;37.592;2024-02-16T03:13:25;14.80;;;8.25;;
34373;SDS011;20637;55.770;37.592;2024-02-16T03:15:51;15.95;;;7.97;;
34373;SDS011;20637;55.770;37.592;2024-02-16T03:18:18;15.27;;;7.78;;
34373;SDS011;20637;55.770;37.592;2024-02-16T03:20:46;15.40;;;8.80;;
34373;SDS011;20637;55.770;37.592;2024-02-16T03:23:14;14.88;;;7.50;;
34373;SDS011;20637;55.770;37.592;2024-02-16T03:25:40;15.13;;;7.78;;
34373;SDS011;20637;55.770;37.592;2024-02-16T03:28:05;14.88;;;7.72;;
34373;SDS011;20637;55.770;37.592;2024-02-16T03:30:33;13.05;;;7.32;;
34373;SDS011;20637;55.770;37.592;2024-02-16T03:32:59;13.82;;;7.75;;
34373;SDS011;20637;55.770;37.592;2024-02-16T03:35:25;14.90;;;7.88;;
34373;SDS011;20637;55.770;37.592;2024-02-16T03:37:52;15.60;;;7.97;;
34373;SDS011;20637;55.770;37.592;2024-02-16T03:40:18;16.65;;;7.05;;
34373;SDS011;20637;55.770;37.592;2024-02-16T03:42:43;14.52;;;7.53;;
34373;SDS011;20637;55.770;37.592;2024-02-16T03:45:09;16.40;;;8.15;;
34373;SDS011;20637;55.770;37.592;2024-02-16T03:47:35;14.93;;;7.65;;
34373;SDS011;20637;55.770;37.592;2024-02-16T03:50:01;15.88;;;8.38;;
34373;SDS011;20637;55.770;37.592;2024-02-16T03:52:28;17.33;;;8.65;;
34373;SDS011;20637;55.770;37.592;2024-02-16T03:54:54;16.77;;;8.00;;
34373;SDS011;20637;55.770;37.592;2024-02-16T03:57:19;14.38;;;8.18;;
34373;SDS011;20637;55.770;37.592;2024-02-16T03:59:45;20.65;;;8.60;;
34373;SDS011;20637;55.770;37.592;2024-02-16T04:02:11;18.00;;;8.75;;
34373;SDS011;20637;55.770;37.592;2024-02-16T04:04:40;16.85;;;9.65;;
34373;SDS011;20637;55.770;37.592;2024-02-16T04:07:06;22.15;;;9.02;;
34373;SDS011;20637;55.770;37.592;2024-02-16T04:09:33;19.33;;;9.77;;
34373;SDS011;20637;55.770;37.592;2024-02-16T04:12:00;16.65;;;9.75;;
34373;SDS011;20637;55.770;37.592;2024-02-16T04:14:26;20.33;;;10.15;;
34373;SDS011;20637;55.770;37.592;2024-02-16T04:16:51;19.17;;;10.18;;
34373;SDS011;20637;55.770;37.592;2024-02-16T04:19:17;23.02;;;12.88;;
34373;SDS011;20637;55.770;37.592;2024-02-16T04:21:43;24.27;;;10.82;;
34373;SDS011;20637;55.770;37.592;2024-02-16T04:24:08;25.02;;;11.40;;
34373;SDS011;20637;55.770;37.592;2024-02-16T04:26:34;19.58;;;10.82;;
34373;SDS011;20637;55.770;37.592;2024-02-16T04:29:00;20.95;;;9.73;;
34373;SDS011;20637;55.770;37.592;2024-02-16T04:31:25;22.80;;;11.20;;
34373;SDS011;20637;55.770;37.592;2024-02-16T04:33:51;19.90;;;10.75;;
34373;SDS011;20637;55.770;37.592;2024-02-16T04:36:18;25.90;;;11.15;;
34373;SDS011;20637;55.770;37.592;2024-02-16T04:38:44;20.52;;;11.80;;
34373;SDS011;20637;55.770;37.592;2024-02-16T04:41:09;19.73;;;11.00;;
34373;SDS011;20637;55.770;37.592;2024-02-16T04:43:35;20.58;;;9.80;;
34373;SDS011;20637;55.770;37.592;2024-02-16T04:46:00;20.08;;;9.23;;
34373;SDS011;20637;55.770;37.592;2024-02-16T04:48:26;21.10;;;10.38;;
34373;SDS011;20637;55.770;37.592;2024-02-16T04:50:52;18.90;;;9.15;;
34373;SDS011;20637;55.770;37.592;2024-02-16T04:53:17;17.08;;;9.18;;
34373;SDS011;20637;55.770;37.592;2024-02-16T04:55:43;19.75;;;9.70;;
34373;SDS011;20637;55.770;37.592;2024-02-16T04:58:08;16.60;;;8.85;;
34373;SDS011;20637;55.770;37.592;2024-02-16T05:00:35;16.35;;;9.23;;
34373;SDS011;20637;55.770;37.592;2024-02-16T05:03:02;19.33;;;9.05;;
34373;SDS011;20637;55.770;37.592;2024-02-16T05:05:28;15.60;;;8.63;;
34373;SDS011;20637;55.770;37.592;2024-02-16T05:07:53;15.82;;;8.02;;
34373;SDS011;20637;55.770;37.592;2024-02-16T05:10:19;16.17;;;8.20;;
34373;SDS011;20637;55.770;37.592;2024-02-16T05:12:45;15.82;;;8.23;;
34373;SDS011;20637;55.770;37.592;2024-02-16T05:15:11;16.38;;;8.77;;
34373;SDS011;20637;55.770;37.592;2024-02-16T05:17:38;20.80;;;10.93;;
34373;SDS011;20637;55.770;37.592;2024-02-16T05:20:10;15.75;;;8.82;;
34373;SDS011;20637;55.770;37.592;2024-02-16T05:22:46;15.60;;;8.70;;
34373;SDS011;20637;55.770;37.592;2024-02-16T05:25:12;12.65;;;7.65;;
34373;SDS011;20637;55.770;37.592;2024-02-16T05:27:39;16.80;;;8.38;;
34373;SDS011;20637;55.770;37.592;2024-02-16T05:30:04;17.77;;;9.20;;
34373;SDS011;20637;55.770;37.592;2024-02-16T05:32:34;19.92;;;9.65;;
34373;SDS011;20637;55.770;37.592;2024-02-16T05:35:01;17.50;;;8.88;;
34373;SDS011;20637;55.770;37.592;2024-02-16T05:37:48;16.65;;;8.45;;
34373;SDS011;20637;55.770;37.592;2024-02-16T05:40:18;14.77;;;7.80;;
34373;SDS011;20637;55.770;37.592;2024-02-16T05:42:52;18.63;;;8.30;;
34373;SDS011;20637;55.770;37.592;2024-02-16T05:45:18;16.55;;;8.95;;
34373;SDS011;20637;55.770;37.592;2024-02-16T05:47:46;15.60;;;8.60;;
34373;SDS011;20637;55.770;37.592;2024-02-16T05:50:12;13.65;;;7.47;;
34373;SDS011;20637;55.770;37.592;2024-02-16T05:52:39;15.85;;;8.25;;
34373;SDS011;20637;55.770;37.592;2024-02-16T05:55:08;17.17;;;8.60;;
34373;SDS011;20637;55.770;37.592;2024-02-16T05:57:35;16.85;;;8.88;;
34373;SDS011;20637;55.770;37.592;2024-02-16T06:00:03;16.23;;;8.60;;
34373;SDS011;20637;55.770;37.592;2024-02-16T06:02:31;19.10;;;9.05;;
34373;SDS011;20637;55.770;37.592;2024-02-16T06:04:57;17.73;;;9.07;;
34373;SDS011;20637;55.770;37.592;2024-02-16T06:07:23;14.43;;;8.15;;
34373;SDS011;20637;55.770;37.592;2024-02-16T06:09:48;13.77;;;7.57;;
34373;SDS011;20637;55.770;37.592;2024-02-16T06:12:14;15.93;;;7.82;;
34373;SDS011;20637;55.770;37.592;2024-02-16T06:14:41;16.25;;;8.05;;
34373;SDS011;20637;55.770;37.592;2024-02-16T06:17:07;16.00;;;7.82;;
34373;SDS011;20637;55.770;37.592;2024-02-16T06:19:33;11.85;;;6.32;;
34373;SDS011;20637;55.770;37.592;2024-02-16T06:21:58;16.83;;;8.50;;
34373;SDS011;20637;55.770;37.592;2024-02-16T06:24:24;15.38;;;8.00;;
34373;SDS011;20637;55.770;37.592;2024-02-16T06:26:50;14.45;;;8.48;;
34373;SDS011;20637;55.770;37.592;2024-02-16T06:29:17;16.73;;;8.65;;
34373;SDS011;20637;55.770;37.592;2024-02-16T06:31:45;15.18;;;8.10;;
34373;SDS011;20637;55.770;37.592;2024-02-16T06:34:13;18.30;;;8.18;;
34373;SDS011;20637;55.770;37.592;2024-02-16T06:36:39;15.18;;;8.15;;
34373;SDS011;20637;55.770;37.592;2024-02-16T06:39:04;13.13;;;6.97;;
34373;SDS011;20637;55.770;37.592;2024-02-16T06:41:30;17.83;;;8.48;;
34373;SDS011;20637;55.770;37.592;2024-02-16T06:43:55;17.67;;;9.40;;
34373;SDS011;20637;55.770;37.592;2024-02-16T06:46:21;15.23;;;8.70;;
34373;SDS011;20637;55.770;37.592;2024-02-16T06:48:47;16.20;;;8.68;;
34373;SDS011;20637;55.770;37.592;2024-02-16T06:51:13;14.07;;;8.05;;
34373;SDS011;20637;55.770;37.592;2024-02-16T06:53:39;14.77;;;8.50;;
34373;SDS011;20637;55.770;37.592;2024-02-16T06:56:04;16.05;;;8.48;;
34373;SDS011;20637;55.770;37.592;2024-02-16T06:58:30;17.67;;;8.85;;
34373;SDS011;20637;55.770;37.592;2024-02-16T07:00:55;17.05;;;8.68;;
34373;SDS011;20637;55.770;37.592;2024-02-16T07:03:23;15.93;;;8.55;;
34373;SDS011;20637;55.770;37.592;2024-02-16T07:05:49;16.83;;;8.52;;
34373;SDS011;20637;55.770;37.592;2024-02-16T07:08:14;17.08;;;8.80;;
34373;SDS011;20637;55.770;37.592;2024-02-16T07:10:40;15.63;;;8.88;;
34373;SDS011;20637;55.770;37.592;2024-02-16T07:13:06;15.48;;;8.52;;
34373;SDS011;20637;55.770;37.592;2024-02-16T07:15:31;16.80;;;9.27;;
34373;SDS011;20637;55.770;37.592;2024-02-16T07:17:57;17.70;;;9.18;;
34373;SDS011;20637;55.770;37.592;2024-02-16T07:20:23;20.40;;;10.43;;
34373;SDS011;20637;55.770;37.592;2024-02-16T07:22:48;16.05;;;9.13;;
34373;SDS011;20637;55.770;37.592;2024-02-16T07:25:16;16.52;;;8.88;;
34373;SDS011;20637;55.770;37.592;2024-02-16T07:27:42;16.85;;;9.65;;
34373;SDS011;20637;55.770;37.592;2024-02-16T07:30:08;15.98;;;8.02;;
34373;SDS011;20637;55.770;37.592;2024-02-16T07:32:36;16.75;;;9.45;;
34373;SDS011;20637;55.770;37.592;2024-02-16T07:35:02;18.30;;;9.07;;
34373;SDS011;20637;55.770;37.592;2024-02-16T07:37:28;16.50;;;8.77;;
34373;SDS011;20637;55.770;37.592;2024-02-16T07:39:55;16.35;;;9.10;;
34373;SDS011;20637;55.770;37.592;2024-02-16T07:42:21;19.98;;;8.77;;
34373;SDS011;20637;55.770;37.592;2024-02-16T07:44:46;16.73;;;9.23;;
34373;SDS011;20637;55.770;37.592;2024-02-16T07:47:12;19.27;;;9.38;;
34373;SDS011;20637;55.770;37.592;2024-02-16T07:49:38;15.50;;;8.73;;
34373;SDS011;20637;55.770;37.592;2024-02-16T07:52:04;17.15;;;8.55;;
34373;SDS011;20637;55.770;37.592;2024-02-16T07:54:30;16.55;;;9.57;;
34373;SDS011;20637;55.770;37.592;2024-02-16T07:56:56;17.67;;;9.55;;
34373;SDS011;20637;55.770;37.592;2024-02-16T07:59:24;18.45;;;10.48;;
34373;SDS011;20637;55.770;37.592;2024-02-16T08:01:50;19.42;;;9.85;;
34373;SDS011;20637;55.770;37.592;2024-02-16T08:04:16;18.95;;;10.07;;
34373;SDS011;20637;55.770;37.592;2024-02-16T08:06:42;20.75;;;10.07;;
34373;SDS011;20637;55.770;37.592;2024-02-16T08:09:07;17.30;;;10.30;;
34373;SDS011;20637;55.770;37.592;2024-02-16T08:11:33;28.67;;;13.20;;
34373;SDS011;20637;55.770;37.592;2024-02-16T08:13:58;24.92;;;10.85;;
34373;SDS011;20637;55.770;37.592;2024-02-16T08:16:28;19.17;;;11.02;;
34373;SDS011;20637;55.770;37.592;2024-02-16T08:18:54;18.73;;;10.45;;
34373;SDS011;20637;55.770;37.592;2024-02-16T08:21:20;20.60;;;10.60;;
34373;SDS011;20637;55.770;37.592;2024-02-16T08:23:46;18.60;;;9.07;;
34373;SDS011;20637;55.770;37.592;2024-02-16T08:26:12;23.45;;;12.27;;
34373;SDS011;20637;55.770;37.592;2024-02-16T08:28:38;20.73;;;10.98;;
34373;SDS011;20637;55.770;37.592;2024-02-16T08:31:04;18.92;;;10.50;;
34373;SDS011;20637;55.770;37.592;2024-02-16T08:33:30;18.85;;;10.23;;
34373;SDS011;20637;55.770;37.592;2024-02-16T08:35:56;22.27;;;11.13;;
34373;SDS011;20637;55.770;37.592;2024-02-16T08:38:22;20.40;;;10.73;;
34373;SDS011;20637;55.770;37.592;2024-02-16T08:40:48;20.58;;;10.32;;
34373;SDS011;20637;55.770;37.592;2024-02-16T08:43:16;19.55;;;10.75;;
34373;SDS011;20637;55.770;37.592;2024-02-16T08:45:42;17.77;;;10.05;;
34373;SDS011;20637;55.770;37.592;2024-02-16T08:48:07;18.52;;;10.05;;
34373;SDS011;20637;55.770;37.592;2024-02-16T08:50:33;19.00;;;10.25;;
34373;SDS011;20637;55.770;37.592;2024-02-16T08:52:58;19.77;;;10.60;;
34373;SDS011;20637;55.770;37.592;2024-02-16T08:55:24;20.27;;;10.68;;
34373;SDS011;20637;55.770;37.592;2024-02-16T08:57:49;20.45;;;11.30;;
34373;SDS011;20637;55.770;37.592;2024-02-16T09:00:15;20.50;;;10.50;;
34373;SDS011;20637;55.770;37.592;2024-02-16T09:02:41;20.23;;;10.95;;
34373;SDS011;20637;55.770;37.592;2024-02-16T09:05:07;25.13;;;11.57;;
34373;SDS011;20637;55.770;37.592;2024-02-16T09:07:35;23.05;;;11.30;;
34373;SDS011;20637;55.770;37.592;2024-02-16T09:10:00;18.90;;;10.95;;
34373;SDS011;20637;55.770;37.592;2024-02-16T09:12:26;19.55;;;10.75;;
34373;SDS011;20637;55.770;37.592;2024-02-16T09:14:51;23.80;;;12.20;;
34373;SDS011;20637;55.770;37.592;2024-02-16T09:17:17;22.08;;;11.45;;
34373;SDS011;20637;55.770;37.592;2024-02-16T09:19:44;18.92;;;11.48;;
34373;SDS011;20637;55.770;37.592;2024-02-16T09:22:10;20.98;;;11.88;;
34373;SDS011;20637;55.770;37.592;2024-02-16T09:24:35;22.45;;;11.95;;
34373;SDS011;20637;55.770;37.592;2024-02-16T09:27:02;24.67;;;12.65;;
34373;SDS011;20637;55.770;37.592;2024-02-16T09:29:30;22.20;;;12.18;;
34373;SDS011;20637;55.770;37.592;2024-02-16T09:31:56;23.52;;;12.05;;
34373;SDS011;20637;55.770;37.592;2024-02-16T09:34:21;20.25;;;11.55;;
34373;SDS011;20637;55.770;37.592;2024-02-16T09:36:47;19.90;;;10.57;;
34373;SDS011;20637;55.770;37.592;2024-02-16T09:39:12;26.23;;;13.10;;
34373;SDS011;20637;55.770;37.592;2024-02-16T09:41:40;21.20;;;11.85;;
34373;SDS011;20637;55.770;37.592;2024-02-16T09:44:07;24.67;;;12.63;;
34373;SDS011;20637;55.770;37.592;2024-02-16T09:46:32;20.08;;;11.27;;
34373;SDS011;20637;55.770;37.592;2024-02-16T09:49:00;27.63;;;13.48;;
34373;SDS011;20637;55.770;37.592;2024-02-16T09:51:26;21.15;;;9.57;;
34373;SDS011;20637;55.770;37.592;2024-02-16T09:53:53;27.30;;;12.52;;
34373;SDS011;20637;55.770;37.592;2024-02-16T09:56:22;22.42;;;13.15;;
34373;SDS011;20637;55.770;37.592;2024-02-16T09:58:51;21.77;;;11.63;;
34373;SDS011;20637;55.770;37.592;2024-02-16T10:01:20;19.85;;;11.20;;
34373;SDS011;20637;55.770;37.592;2024-02-16T10:03:47;20.02;;;10.13;;
34373;SDS011;20637;55.770;37.592;2024-02-16T10:06:14;22.65;;;11.90;;
34373;SDS011;20637;55.770;37.592;2024-02-16T10:08:47;23.45;;;12.50;;
34373;SDS011;20637;55.770;37.592;2024-02-16T10:11:17;24.77;;;12.50;;
34373;SDS011;20637;55.770;37.592;2024-02-16T10:16:21;18.40;;;10.43;;
34373;SDS011;20637;55.770;37.592;2024-02-16T10:18:47;26.13;;;12.52;;
34373;SDS011;20637;55.770;37.592;2024-02-16T10:21:13;23.05;;;11.20;;
34373;SDS011;20637;55.770;37.592;2024-02-16T10:23:38;25.80;;;13.93;;
34373;SDS011;20637;55.770;37.592;2024-02-16T10:26:04;22.73;;;11.88;;
34373;SDS011;20637;55.770;37.592;2024-02-16T10:28:29;24.58;;;12.35;;
34373;SDS011;20637;55.770;37.592;2024-02-16T10:30:58;22.05;;;11.60;;
34373;SDS011;20637;55.770;37.592;2024-02-16T10:33:28;25.95;;;12.43;;
34373;SDS011;20637;55.770;37.592;2024-02-16T10:35:57;23.05;;;12.48;;
34373;SDS011;20637;55.770;37.592;2024-02-16T10:38:24;21.30;;;12.00;;
34373;SDS011;20637;55.770;37.592;2024-02-16T10:40:52;26.70;;;14.63;;
34373;SDS011;20637;55.770;37.592;2024-02-16T10:43:18;18.52;;;11.25;;
34373;SDS011;20637;55.770;37.592;2024-02-16T10:45:47;21.05;;;11.43;;
34373;SDS011;20637;55.770;37.592;2024-02-16T10:48:17;26.60;;;12.07;;
34373;SDS011;20637;55.770;37.592;2024-02-16T10:50:44;20.60;;;11.23;;
34373;SDS011;20637;55.770;37.592;2024-02-16T10:55:50;23.63;;;11.80;;
34373;SDS011;20637;55.770;37.592;2024-02-16T10:58:18;24.23;;;13.02;;
34373;SDS011;20637;55.770;37.592;2024-02-16T11:01:26;22.75;;;12.07;;
34373;SDS011;20637;55.770;37.592;2024-02-16T11:03:37;24.02;;;13.73;;
34373;SDS011;20637;55.770;37.592;2024-02-16T11:06:11;20.50;;;12.32;;
34373;SDS011;20637;55.770;37.592;2024-02-16T11:08:43;22.73;;;13.55;;
34373;SDS011;20637;55.770;37.592;2024-02-16T11:11:09;23.73;;;12.45;;
34373;SDS011;20637;55.770;37.592;2024-02-16T11:13:39;24.10;;;12.98;;
34373;SDS011;20637;55.770;37.592;2024-02-16T11:16:08;22.45;;;11.27;;
34373;SDS011;20637;55.770;37.592;2024-02-16T11:18:38;26.95;;;13.77;;
34373;SDS011;20637;55.770;37.592;2024-02-16T11:21:05;25.05;;;13.73;;
34373;SDS011;20637;55.770;37.592;2024-02-16T11:23:34;25.27;;;12.95;;
34373;SDS011;20637;55.770;37.592;2024-02-16T11:26:05;25.08;;;13.20;;
34373;SDS011;20637;55.770;37.592;2024-02-16T11:28:36;21.80;;;12.35;;
34373;SDS011;20637;55.770;37.592;2024-02-16T11:31:02;28.40;;;13.05;;
34373;SDS011;20637;55.770;37.592;2024-02-16T11:33:29;21.83;;;12.10;;
34373;SDS011;20637;55.770;37.592;2024-02-16T11:35:59;23.42;;;12.70;;
34373;SDS011;20637;55.770;37.592;2024-02-16T11:41:02;21.98;;;11.88;;
34373;SDS011;20637;55.770;37.592;2024-02-16T11:43:30;19.42;;;11.02;;
34373;SDS011;20637;55.770;37.592;2024-02-16T11:45:58;22.60;;;11.95;;
34373;SDS011;20637;55.770;37.592;2024-02-16T11:48:24;24.05;;;12.88;;
34373;SDS011;20637;55.770;37.592;2024-02-16T11:51:02;21.83;;;11.88;;
34373;SDS011;20637;55.770;37.592;2024-02-16T11:53:29;20.05;;;11.90;;
34373;SDS011;20637;55.770;37.592;2024-02-16T11:55:55;21.17;;;12.63;;
34373;SDS011;20637;55.770;37.592;2024-02-16T11:58:21;21.23;;;12.13;;
34373;SDS011;20637;55.770;37.592;2024-02-16T12:00:47;23.02;;;12.40;;
34373;SDS011;20637;55.770;37.592;2024-02-16T12:03:20;22.20;;;12.13;;
34373;SDS011;20637;55.770;37.592;2024-02-16T12:05:53;24.40;;;13.13;;
34373;SDS011;20637;55.770;37.592;2024-02-16T12:08:24;24.95;;;12.05;;
34373;SDS011;20637;55.770;37.592;2024-02-16T12:10:58;23.70;;;12.85;;
34373;SDS011;20637;55.770;37.592;2024-02-16T12:13:23;23.42;;;12.65;;
34373;SDS011;20637;55.770;37.592;2024-02-16T12:15:51;21.60;;;11.25;;
34373;SDS011;20637;55.770;37.592;2024-02-16T12:18:20;20.40;;;10.55;;
34373;SDS011;20637;55.770;37.592;2024-02-16T12:21:02;24.58;;;12.48;;
34373;SDS011;20637;55.770;37.592;2024-02-16T12:25:57;20.40;;;11.00;;
34373;SDS011;20637;55.770;37.592;2024-02-16T12:28:24;20.77;;;11.90;;
34373;SDS011;20637;55.770;37.592;2024-02-16T12:30:51;25.13;;;12.25;;
34373;SDS011;20637;55.770;37.592;2024-02-16T12:33:17;25.33;;;13.50;;
34373;SDS011;20637;55.770;37.592;2024-02-16T12:35:42;20.30;;;12.20;;
34373;SDS011;20637;55.770;37.592;2024-02-16T12:38:09;21.50;;;12.98;;
34373;SDS011;20637;55.770;37.592;2024-02-16T12:40:36;24.75;;;12.80;;
34373;SDS011;20637;55.770;37.592;2024-02-16T12:43:02;23.63;;;12.60;;
34373;SDS011;20637;55.770;37.592;2024-02-16T12:45:27;22.83;;;11.90;;
34373;SDS011;20637;55.770;37.592;2024-02-16T12:47:53;20.05;;;11.77;;
34373;SDS011;20637;55.770;37.592;2024-02-16T12:50:18;24.02;;;12.55;;
34373;SDS011;20637;55.770;37.592;2024-02-16T12:52:44;23.10;;;12.73;;
34373;SDS011;20637;55.770;37.592;2024-02-16T12:55:11;26.20;;;11.82;;
34373;SDS011;20637;55.770;37.592;2024-02-16T12:57:36;22.90;;;12.02;;
34373;SDS011;20637;55.770;37.592;2024-02-16T13:00:03;22.58;;;11.77;;
34373;SDS011;20637;55.770;37.592;2024-02-16T13:02:30;19.60;;;11.77;;
34373;SDS011;20637;55.770;37.592;2024-02-16T13:04:56;24.65;;;12.15;;
34373;SDS011;20637;55.770;37.592;2024-02-16T13:07:23;20.98;;;11.00;;
34373;SDS011;20637;55.770;37.592;2024-02-16T13:09:49;22.27;;;13.02;;
34373;SDS011;20637;55.770;37.592;2024-02-16T13:12:16;25.55;;;12.20;;
34373;SDS011;20637;55.770;37.592;2024-02-16T13:14:42;23.55;;;12.13;;
34373;SDS011;20637;55.770;37.592;2024-02-16T13:17:08;25.48;;;12.82;;
34373;SDS011;20637;55.770;37.592;2024-02-16T13:19:33;25.10;;;12.32;;
34373;SDS011;20637;55.770;37.592;2024-02-16T13:21:59;22.92;;;12.40;;
34373;SDS011;20637;55.770;37.592;2024-02-16T13:24:24;20.23;;;11.65;;
34373;SDS011;20637;55.770;37.592;2024-02-16T13:26:50;23.30;;;12.15;;
34373;SDS011;20637;55.770;37.592;2024-02-16T13:29:15;20.85;;;11.02;;
34373;SDS011;20637;55.770;37.592;2024-02-16T13:31:41;23.35;;;12.25;;
34373;SDS011;20637;55.770;37.592;2024-02-16T13:34:08;21.83;;;11.88;;
34373;SDS011;20637;55.770;37.592;2024-02-16T13:36:33;25.88;;;12.32;;
34373;SDS011;20637;55.770;37.592;2024-02-16T13:38:59;26.48;;;12.07;;
34373;SDS011;20637;55.770;37.592;2024-02-16T13:41:25;23.10;;;11.73;;
34373;SDS011;20637;55.770;37.592;2024-02-16T13:43:51;23.08;;;11.75;;
34373;SDS011;20637;55.770;37.592;2024-02-16T13:46:16;22.48;;;12.00;;
34373;SDS011;20637;55.770;37.592;2024-02-16T13:48:43;22.40;;;11.88;;
34373;SDS011;20637;55.770;37.592;2024-02-16T13:51:08;23.08;;;11.88;;
34373;SDS011;20637;55.770;37.592;2024-02-16T13:53:35;25.85;;;14.00;;
34373;SDS011;20637;55.770;37.592;2024-02-16T13:56:01;22.20;;;13.10;;
34373;SDS011;20637;55.770;37.592;2024-02-16T13:58:29;22.88;;;13.13;;
34373;SDS011;20637;55.770;37.592;2024-02-16T14:00:56;23.17;;;12.60;;
34373;SDS011;20637;55.770;37.592;2024-02-16T14:03:23;23.92;;;11.70;;
34373;SDS011;20637;55.770;37.592;2024-02-16T14:05:48;21.52;;;11.98;;
34373;SDS011;20637;55.770;37.592;2024-02-16T14:08:14;21.48;;;10.95;;
34373;SDS011;20637;55.770;37.592;2024-02-16T14:10:41;23.98;;;12.57;;
34373;SDS011;20637;55.770;37.592;2024-02-16T14:13:06;21.75;;;12.15;;
34373;SDS011;20637;55.770;37.592;2024-02-16T14:15:32;23.67;;;12.63;;
34373;SDS011;20637;55.770;37.592;2024-02-16T14:17:57;21.85;;;12.68;;
34373;SDS011;20637;55.770;37.592;2024-02-16T14:20:23;21.80;;;11.60;;
34373;SDS011;20637;55.770;37.592;2024-02-16T14:22:49;20.52;;;11.23;;
34373;SDS011;20637;55.770;37.592;2024-02-16T14:25:15;22.67;;;12.18;;